Time;durP1;ratioP1;P1;durP2;ratioP2;P2;SDS_P1;SDS_P2;PMS_P1;PMS_P2;Temp;Humidity;BMP_temperature;BMP_pressure;BME280_temperature;BME280_humidity;BME280_pressure;Samples;Min_cycle;Max_cycle;Signal;HPM_P1;HPM_P2
2022/10/06 00:02:03;;;;;;;15.38;6.00;;;;;;;23.07;56.24;101237.72;5053309;28;20051;-79
2022/10/06 00:04:31;;;;;;;13.38;5.93;;;;;;;22.97;56.57;101243.97;5042147;28;20057;-77
2022/10/06 00:07:00;;;;;;;12.07;6.07;;;;;;;22.87;57.01;101239.72;5047539;28;21026;-77
2022/10/06 00:09:30;;;;;;;11.25;4.97;;;;;;;22.83;58.61;101241.53;5047343;28;20059;-78
2022/10/06 00:11:59;;;;;;;10.50;6.28;;;;;;;22.78;57.33;101238.94;5046255;28;20563;-83
2022/10/06 00:14:28;;;;;;;9.80;5.57;;;;;;;22.76;58.06;101238.09;5048513;28;20091;-74
2022/10/06 00:16:57;;;;;;;7.60;6.20;;;;;;;22.67;57.85;101238.22;5047129;28;20041;-74
2022/10/06 00:19:25;;;;;;;8.77;5.95;;;;;;;22.58;57.99;101239.19;5045996;28;20053;-72
2022/10/06 00:21:54;;;;;;;10.88;5.65;;;;;;;22.53;58.92;101238.38;5047395;28;20499;-73
2022/10/06 00:24:22;;;;;;;15.00;6.10;;;;;;;22.52;58.94;101241.94;5045307;28;20037;-73
2022/10/06 00:26:53;;;;;;;12.77;6.03;;;;;;;22.48;59.28;101234.06;5046784;28;20445;-75
2022/10/06 00:29:21;;;;;;;13.32;6.38;;;;;;;22.41;58.75;101237.69;5047497;28;20045;-74
2022/10/06 00:31:50;;;;;;;14.00;5.95;;;;;;;22.32;59.23;101234.25;5047044;28;20055;-75
2022/10/06 00:34:18;;;;;;;14.43;5.80;;;;;;;22.28;59.74;101240.44;5045469;28;20049;-74
2022/10/06 00:36:47;;;;;;;12.15;6.63;;;;;;;22.21;59.88;101238.75;5046668;28;20697;-73
2022/10/06 00:39:15;;;;;;;16.88;6.35;;;;;;;22.14;60.21;101242.31;5052292;28;20047;-78
2022/10/06 00:41:44;;;;;;;12.70;6.07;;;;;;;22.08;60.83;101245.00;5066140;28;20059;-81
2022/10/06 00:44:14;;;;;;;12.52;5.95;;;;;;;22.01;61.00;101241.56;5064011;28;20040;-74
2022/10/06 00:46:45;;;;;;;15.13;6.45;;;;;;;21.95;61.36;101236.38;5064248;28;20053;-76
2022/10/06 00:49:17;;;;;;;13.90;5.20;;;;;;;21.88;62.77;101239.97;5064215;28;20064;-73
2022/10/06 00:51:48;;;;;;;;;;;;;;;21.81;63.03;101233.88;5062759;28;20071;-74
2022/10/06 00:54:18;;;;;;;9.95;5.63;;;;;;;21.74;62.98;101242.72;5066334;28;19927;-73
2022/10/06 00:56:46;;;;;;;23.40;6.05;;;;;;;21.68;63.34;101245.41;5066080;28;20053;-74
2022/10/06 00:59:19;;;;;;;9.40;5.03;;;;;;;21.63;63.88;101240.19;5072268;28;20052;-73
2022/10/06 01:01:54;;;;;;;15.30;5.82;;;;;;;21.58;63.49;101233.19;5066074;28;20057;-74
2022/10/06 01:04:24;;;;;;;10.98;5.78;;;;;;;21.51;63.87;101235.03;5059341;28;20504;-72
2022/10/06 01:06:55;;;;;;;15.15;6.32;;;;;;;21.44;64.34;101234.19;5065850;28;20061;-71
2022/10/06 01:09:25;;;;;;;11.80;5.53;;;;;;;21.31;65.75;101229.88;5068616;28;20494;-72
2022/10/06 01:11:58;;;;;;;12.30;6.43;;;;;;;21.19;65.71;101222.03;5059260;28;20040;-72
2022/10/06 01:14:28;;;;;;;19.67;4.90;;;;;;;21.16;67.32;101230.84;5067664;28;20055;-72
2022/10/06 01:17:02;;;;;;;8.55;4.82;;;;;;;21.04;67.53;101223.91;5058069;28;20491;-72
2022/10/06 01:19:42;;;;;;;18.30;5.82;;;;;;;21.02;67.58;101230.06;5064890;28;20059;-71
2022/10/06 01:22:14;;;;;;;17.10;6.85;;;;;;;20.93;67.18;101230.97;5054125;28;20037;-72
2022/10/06 01:24:46;;;;;;;23.40;6.68;;;;;;;20.85;67.79;101224.91;5055930;28;20611;-71
2022/10/06 01:27:17;;;;;;;27.35;7.38;;;;;;;20.80;67.57;101234.56;5067490;28;20048;-71
2022/10/06 01:29:45;;;;;;;21.13;7.70;;;;;;;20.73;67.85;101239.00;5067541;28;20097;-72
2022/10/06 01:32:14;;;;;;;24.02;7.75;;;;;;;20.68;67.94;101238.13;5070151;28;20059;-71
2022/10/06 01:34:42;;;;;;;14.63;5.55;;;;;;;20.62;69.15;101236.41;5064085;28;20512;-71
2022/10/06 01:37:11;;;;;;;17.35;6.60;;;;;;;20.51;69.63;101238.16;5053670;28;20055;-71
2022/10/06 01:39:40;;;;;;;15.30;5.93;;;;;;;20.43;69.75;101229.41;5080967;28;20143;-71
2022/10/06 01:42:10;;;;;;;13.27;5.93;;;;;;;20.37;69.81;101234.72;5085529;28;20044;-72
2022/10/06 01:44:39;;;;;;;20.95;8.38;;;;;;;20.29;69.96;101235.63;5065164;28;20052;-71
2022/10/06 01:47:09;;;;;;;17.13;6.25;;;;;;;20.24;70.79;101242.63;5058972;28;20052;-71
2022/10/06 01:49:37;;;;;;;17.20;7.03;;;;;;;20.17;71.07;101234.78;5064138;28;20053;-72
2022/10/06 01:52:06;;;;;;;15.23;6.15;;;;;;;20.09;71.26;101227.78;5054681;28;20517;-71
2022/10/06 01:54:35;;;;;;;23.52;6.88;;;;;;;20.01;71.42;101240.06;5048065;28;20052;-70
2022/10/06 01:57:05;;;;;;;28.17;7.47;;;;;;;19.94;71.79;101237.44;5062192;28;20056;-70
2022/10/06 01:59:36;;;;;;;19.00;7.03;;;;;;;19.85;71.96;101233.94;5063752;28;20334;-71
2022/10/06 02:02:04;;;;;;;17.08;6.32;;;;;;;19.77;72.68;101242.69;5059234;28;20045;-71
2022/10/06 02:04:34;;;;;;;15.15;6.78;;;;;;;19.70;72.64;101247.09;5071255;28;20131;-71
2022/10/06 02:07:02;;;;;;;14.95;5.90;;;;;;;19.64;72.49;101244.44;5068854;28;20049;-72
2022/10/06 02:09:31;;;;;;;27.48;7.75;;;;;;;19.58;72.98;101242.66;5067857;28;20048;-71
2022/10/06 02:12:00;;;;;;;22.15;7.78;;;;;;;19.53;73.26;101246.19;5068327;28;20052;-71
2022/10/06 02:14:30;;;;;;;19.95;7.00;;;;;;;19.44;73.60;101247.03;5062913;28;20051;-71
2022/10/06 02:17:00;;;;;;;14.05;7.05;;;;;;;19.39;73.82;101247.03;5064946;28;20152;-71
2022/10/06 02:19:29;;;;;;;18.77;7.30;;;;;;;19.32;74.00;101254.91;5065803;28;20056;-71
2022/10/06 02:21:58;;;;;;;16.30;6.47;;;;;;;19.25;74.83;101260.16;5063349;28;20540;-76
2022/10/06 02:24:27;;;;;;;13.07;6.13;;;;;;;19.18;74.60;101260.13;5058683;28;20532;-76
2022/10/06 02:26:55;;;;;;;12.95;6.90;;;;;;;19.13;74.71;101259.25;5061927;28;20501;-76
2022/10/06 02:29:24;;;;;;;19.38;6.75;;;;;;;19.05;75.08;101265.34;5065201;28;20049;-78
2022/10/06 02:31:53;;;;;;;14.57;6.13;;;;;;;18.99;75.32;101269.72;5067690;28;20041;-77
2022/10/06 02:34:24;;;;;;;16.98;6.38;;;;;;;18.93;75.59;101273.19;5060360;28;20088;-76
2022/10/06 02:36:52;;;;;;;21.83;6.25;;;;;;;18.81;75.99;101257.41;5063934;28;20053;-70
2022/10/06 02:39:21;;;;;;;19.98;6.07;;;;;;;18.78;76.24;101273.13;5062451;28;20152;-70
2022/10/06 02:41:50;;;;;;;20.75;6.90;;;;;;;18.72;77.05;101267.84;5046012;28;20063;-70
2022/10/06 02:44:18;;;;;;;17.85;7.82;;;;;;;18.68;77.19;101271.31;5047609;28;20052;-70
2022/10/06 02:46:48;;;;;;;28.33;6.43;;;;;;;18.63;77.40;101273.91;5054009;28;20051;-70
2022/10/06 02:49:17;;;;;;;15.70;6.00;;;;;;;18.58;77.80;101275.63;5054344;28;20101;-70
2022/10/06 02:51:47;;;;;;;27.75;6.97;;;;;;;18.53;77.62;101275.63;5050401;28;20044;-71
2022/10/06 02:54:16;;;;;;;17.83;5.97;;;;;;;18.46;77.58;101283.41;5042570;28;20048;-71
2022/10/06 02:56:44;;;;;;;17.95;6.30;;;;;;;18.37;78.25;101281.63;5051101;28;20049;-70
2022/10/06 02:59:13;;;;;;;19.63;6.90;;;;;;;18.32;78.85;101284.19;5047457;28;20052;-70
2022/10/06 03:01:41;;;;;;;14.68;6.03;;;;;;;18.25;78.85;101279.81;5058533;28;20052;-71
2022/10/06 03:04:11;;;;;;;16.60;6.40;;;;;;;18.19;79.08;101282.41;5055855;28;20123;-71
2022/10/06 03:06:40;;;;;;;22.83;5.72;;;;;;;18.13;79.67;101293.69;5059421;28;20052;-71
2022/10/06 03:09:11;;;;;;;11.82;5.97;;;;;;;18.08;80.04;101295.41;5039237;28;20065;-70
2022/10/06 03:11:42;;;;;;;20.27;6.68;;;;;;;18.04;80.52;101282.28;5044235;28;20040;-71
2022/10/06 03:14:10;;;;;;;14.95;5.78;;;;;;;17.98;79.55;101283.09;5044873;28;20040;-69
2022/10/06 03:16:40;;;;;;;13.38;6.43;;;;;;;17.91;79.70;101282.22;5044486;28;20053;-70
2022/10/06 03:19:10;;;;;;;11.48;4.75;;;;;;;17.84;80.62;101288.22;5052130;28;20127;-68
2022/10/06 03:21:41;;;;;;;11.10;5.20;;;;;;;17.77;80.71;101287.31;5043992;28;20049;-69
2022/10/06 03:24:12;;;;;;;17.02;5.47;;;;;;;17.73;81.05;101285.50;5055410;28;20051;-69
2022/10/06 03:26:43;;;;;;;11.35;5.28;;;;;;;17.66;81.98;101281.09;5049839;28;20053;-70
2022/10/06 03:29:12;;;;;;;13.40;4.82;;;;;;;17.57;82.06;101281.88;5056184;28;20055;-74
2022/10/06 03:31:41;;;;;;;16.70;5.30;;;;;;;17.53;81.97;101281.84;5042578;28;20109;-75
2022/10/06 03:34:09;;;;;;;8.65;5.68;;;;;;;17.48;82.35;101280.94;5060485;28;20098;-76
2022/10/06 03:36:38;;;;;;;10.88;5.15;;;;;;;17.44;82.77;101284.38;5054225;28;20056;-75
2022/10/06 03:39:07;;;;;;;16.63;5.03;;;;;;;17.40;82.34;101288.69;5053656;28;20477;-77
2022/10/06 03:41:38;;;;;;;11.48;5.18;;;;;;;17.35;82.87;101291.25;5048474;28;20087;-75
2022/10/06 03:44:07;;;;;;;7.63;4.53;;;;;;;17.30;83.82;101290.34;5050358;28;20049;-76
2022/10/06 03:46:37;;;;;;;11.13;5.07;;;;;;;17.27;84.55;101292.94;5049969;28;20604;-74
2022/10/06 03:49:06;;;;;;;12.57;6.20;;;;;;;17.23;84.21;101296.38;5040374;28;20042;-77
2022/10/06 03:51:36;;;;;;;8.68;5.13;;;;;;;17.20;84.69;101301.53;5048908;28;20776;-76
2022/10/06 03:54:06;;;;;;;11.75;6.07;;;;;;;17.15;84.74;101298.88;5044723;28;20037;-77
2022/10/06 03:56:38;;;;;;;9.77;5.15;;;;;;;17.11;85.29;101301.44;5048689;28;20057;-77
2022/10/06 03:59:08;;;;;;;19.47;5.33;;;;;;;17.06;85.51;101308.34;5044222;28;20045;-77
2022/10/06 04:01:39;;;;;;;11.50;5.53;;;;;;;17.01;85.93;101304.81;5041430;28;20045;-75
2022/10/06 04:04:08;;;;;;;15.27;5.82;;;;;;;16.95;85.32;101305.66;5044429;28;20103;-74
2022/10/06 04:06:39;;;;;;;6.65;4.00;;;;;;;16.90;85.06;101308.16;5038750;28;20057;-76
2022/10/06 04:09:09;;;;;;;13.20;5.05;;;;;;;16.86;85.98;101316.84;5044007;28;20045;-74
2022/10/06 04:11:40;;;;;;;14.23;4.60;;;;;;;16.83;85.85;101306.34;5050137;28;20076;-74
2022/10/06 04:14:10;;;;;;;11.90;4.50;;;;;;;16.79;85.00;101309.81;5052943;28;20048;-75
2022/10/06 04:16:40;;;;;;;7.80;4.97;;;;;;;16.75;85.69;101318.41;5047330;28;20056;-75
2022/10/06 04:19:10;;;;;;;10.20;5.30;;;;;;;16.70;85.59;101315.75;5048591;28;20061;-76
2022/10/06 04:21:40;;;;;;;9.20;4.97;;;;;;;16.67;85.91;101320.91;5034558;28;20124;-75
2022/10/06 04:24:10;;;;;;;8.75;5.38;;;;;;;16.64;85.92;101331.31;5048106;28;20513;-77
2022/10/06 04:26:43;;;;;;;10.18;4.72;;;;;;;16.60;86.28;101328.66;5034759;28;20120;-76
2022/10/06 04:29:12;;;;;;;8.38;4.72;;;;;;;16.55;86.52;101324.22;5043493;28;20048;-76
2022/10/06 04:31:42;;;;;;;16.42;5.65;;;;;;;16.52;86.20;101326.81;5042797;28;20041;-76
2022/10/06 04:34:12;;;;;;;10.40;4.35;;;;;;;16.48;85.66;101321.53;5045512;28;20440;-74
2022/10/06 04:36:43;;;;;;;7.88;4.10;;;;;;;16.44;85.85;101327.56;5049198;28;20140;-76
2022/10/06 04:39:12;;;;;;;12.80;5.13;;;;;;;16.40;86.72;101337.09;5049414;28;20098;-76
2022/10/06 04:41:46;;;;;;;7.65;4.40;;;;;;;16.36;86.56;101332.69;5061377;27;20671;-77
2022/10/06 04:44:14;;;;;;;11.07;4.70;;;;;;;16.33;86.38;101337.84;5065843;28;20052;-78
2022/10/06 04:46:43;;;;;;;15.50;4.82;;;;;;;16.29;86.71;101346.50;5058469;28;20052;-74
2022/10/06 04:49:12;;;;;;;10.48;4.65;;;;;;;16.26;87.48;101338.59;5072953;28;20041;-73
2022/10/06 04:51:41;;;;;;;15.48;5.38;;;;;;;16.18;87.77;101329.78;5057105;28;20048;-70
2022/10/06 04:54:09;;;;;;;13.85;5.10;;;;;;;16.19;88.72;101347.19;5068831;28;20532;-72
2022/10/06 04:56:38;;;;;;;11.63;5.50;;;;;;;16.15;88.65;101340.16;5065340;28;20045;-73
2022/10/06 04:59:08;;;;;;;9.20;4.45;;;;;;;16.11;89.35;101349.69;5061809;28;20056;-77
2022/10/06 05:01:38;;;;;;;10.75;5.20;;;;;;;16.07;89.34;101348.75;5054056;28;20048;-77
2022/10/06 05:04:07;;;;;;;7.97;4.22;;;;;;;16.05;89.53;101355.66;5061668;28;20131;-77
2022/10/06 05:06:37;;;;;;;9.85;4.20;;;;;;;16.02;89.55;101358.25;5062717;28;20994;-75
2022/10/06 05:09:08;;;;;;;8.68;4.03;;;;;;;16.00;89.66;101359.94;5063913;28;20063;-76
2022/10/06 05:11:37;;;;;;;9.32;4.70;;;;;;;15.96;89.54;101358.13;5067598;28;20051;-76
2022/10/06 05:14:07;;;;;;;10.88;5.13;;;;;;;15.93;89.83;101358.09;5067904;28;20052;-76
2022/10/06 05:16:37;;;;;;;10.45;4.53;;;;;;;15.89;89.64;101351.91;5066681;28;20845;-76
2022/10/06 05:19:07;;;;;;;10.70;4.80;;;;;;;15.87;90.46;101360.59;5070208;28;20588;-76
2022/10/06 05:21:36;;;;;;;7.80;4.55;;;;;;;15.83;90.02;101361.41;5056293;28;20052;-71
2022/10/06 05:24:05;;;;;;;8.68;4.72;;;;;;;15.81;90.46;101356.16;5074578;28;20059;-81
2022/10/06 05:26:36;;;;;;;10.63;4.32;;;;;;;15.77;89.62;101362.16;5063938;28;20587;-80
2022/10/06 05:29:05;;;;;;;9.23;5.47;;;;;;;15.76;89.85;101362.13;5057619;28;20053;-80
2022/10/06 05:31:39;;;;;;;16.50;5.78;;;;;;;15.74;89.86;101363.84;5065417;28;20044;-79
2022/10/06 05:34:07;;;;;;;6.90;4.13;;;;;;;15.73;90.40;101362.06;5062589;28;20502;-79
2022/10/06 05:36:36;;;;;;;7.40;4.72;;;;;;;15.64;89.88;101347.97;5062394;28;20450;-78
2022/10/06 05:39:05;;;;;;;6.97;4.55;;;;;;;15.64;90.64;101357.53;5057690;28;20126;-79
2022/10/06 05:41:36;;;;;;;8.43;4.75;;;;;;;15.62;90.02;101352.31;5067928;28;20513;-77
2022/10/06 05:44:05;;;;;;;11.57;5.43;;;;;;;15.59;90.44;101349.63;5063963;28;20037;-77
2022/10/06 05:46:36;;;;;;;10.15;4.47;;;;;;;15.58;90.26;101358.31;5059186;28;20533;-80
2022/10/06 05:49:06;;;;;;;7.90;5.05;;;;;;;15.55;90.95;101357.34;5061528;28;20612;-71
2022/10/06 05:51:37;;;;;;;8.23;4.80;;;;;;;15.52;90.97;101354.72;5059399;28;20518;-70
2022/10/06 05:54:06;;;;;;;9.55;4.88;;;;;;;15.49;91.37;101350.31;5062601;28;20381;-71
2022/10/06 05:56:36;;;;;;;12.23;5.55;;;;;;;15.47;91.23;101347.66;5058545;28;20090;-71
2022/10/06 05:59:06;;;;;;;11.80;4.38;;;;;;;15.45;91.36;101351.09;5061970;28;20634;-70
2022/10/06 06:01:38;;;;;;;9.90;5.05;;;;;;;15.42;91.44;101356.25;5065731;28;20508;-71
2022/10/06 06:04:08;;;;;;;11.98;5.45;;;;;;;15.41;90.87;101357.09;5069617;28;20438;-70
2022/10/06 06:06:38;;;;;;;8.63;4.43;;;;;;;15.37;91.40;101350.06;5064657;28;20568;-70
2022/10/06 06:09:09;;;;;;;8.30;4.80;;;;;;;15.35;91.07;101357.88;5062662;28;20097;-71
2022/10/06 06:11:39;;;;;;;11.70;4.78;;;;;;;15.32;90.82;101354.31;5058577;28;21030;-71
2022/10/06 06:14:09;;;;;;;8.88;4.75;;;;;;;15.28;91.57;101346.44;5060276;28;20600;-71
2022/10/06 06:16:40;;;;;;;8.38;4.15;;;;;;;15.27;91.56;101347.28;5067703;28;20048;-70
2022/10/06 06:19:10;;;;;;;10.85;4.45;;;;;;;15.24;90.89;101342.00;5061065;28;20045;-70
2022/10/06 06:21:39;;;;;;;7.40;3.78;;;;;;;15.22;91.13;101348.91;5057003;28;20052;-70
2022/10/06 06:24:08;;;;;;;8.52;4.60;;;;;;;15.20;91.25;101350.63;5065398;28;20055;-71
2022/10/06 06:26:37;;;;;;;6.40;4.00;;;;;;;15.17;90.28;101347.97;5061188;28;20044;-70
2022/10/06 06:29:07;;;;;;;11.80;5.68;;;;;;;15.15;90.48;101352.25;5056178;28;20049;-70
2022/10/06 06:31:37;;;;;;;9.88;4.85;;;;;;;15.13;91.49;101351.34;5060671;28;20060;-71
2022/10/06 06:34:08;;;;;;;8.55;4.88;;;;;;;15.10;91.43;101361.72;5064617;28;20509;-71
2022/10/06 06:36:39;;;;;;;11.82;4.60;;;;;;;15.06;90.52;101354.69;5056336;28;20048;-71
2022/10/06 06:39:23;;;;;;;12.10;4.95;;;;;;;15.04;91.46;101356.38;5066155;28;20206;-70
2022/10/06 06:41:52;;;;;;;8.35;4.82;;;;;;;14.99;91.04;101356.28;5048642;28;20571;-70
2022/10/06 06:44:21;;;;;;;11.57;5.65;;;;;;;14.98;91.68;101356.22;5044382;28;20041;-70
2022/10/06 06:46:50;;;;;;;12.02;5.15;;;;;;;14.95;91.89;101361.38;5047743;28;20079;-71
2022/10/06 06:49:21;;;;;;;7.85;4.38;;;;;;;14.93;92.05;101360.47;5049723;28;20042;-70
2022/10/06 06:51:49;;;;;;;9.25;4.78;;;;;;;14.91;91.91;101356.94;5045969;28;20139;-71
2022/10/06 06:54:18;;;;;;;13.00;5.25;;;;;;;14.88;92.41;101358.63;5045787;28;20049;-71
2022/10/06 06:56:47;;;;;;;9.95;5.28;;;;;;;14.87;92.37;101358.63;5051971;28;20048;-70
2022/10/06 06:59:16;;;;;;;17.95;5.55;;;;;;;14.77;92.62;101348.84;5061481;28;20457;-70
2022/10/06 07:01:47;;;;;;;10.75;4.93;;;;;;;14.81;92.30;101366.31;5057416;28;20129;-70
2022/10/06 07:04:17;;;;;;;10.85;5.95;;;;;;;14.80;93.15;101370.63;5065985;28;20036;-70
2022/10/06 07:06:52;;;;;;;8.80;5.32;;;;;;;14.77;92.17;101360.13;5048355;28;20096;-71
2022/10/06 07:09:21;;;;;;;8.85;5.25;;;;;;;14.76;92.16;101371.41;5055593;28;20124;-71
2022/10/06 07:11:50;;;;;;;10.35;6.03;;;;;;;14.75;92.60;101376.56;5053002;28;20872;-71
2022/10/06 07:14:21;;;;;;;9.40;4.78;;;;;;;14.73;92.33;101367.84;5045355;28;20423;-70
2022/10/06 07:25:31;;;;;;;13.10;5.40;;;;;;;14.66;92.64;101377.28;4964036;28;20665;-70
2022/10/06 07:27:59;;;;;;;11.82;5.07;;;;;;;14.63;91.66;101371.97;5038229;28;20416;-70
2022/10/06 07:30:29;;;;;;;11.18;5.50;;;;;;;14.61;90.91;101371.06;5055500;28;20421;-70
2022/10/06 07:32:58;;;;;;;9.43;5.28;;;;;;;14.54;91.13;101357.00;5048025;28;20053;-70
2022/10/06 07:35:27;;;;;;;8.05;4.85;;;;;;;14.56;91.39;101378.75;5051093;28;20053;-70
2022/10/06 07:38:06;;;;;;;9.95;4.95;;;;;;;14.54;90.62;101376.94;5054503;28;20525;-70
2022/10/06 07:40:36;;;;;;;9.00;5.38;;;;;;;14.52;91.21;101374.28;5048408;28;20060;-70
2022/10/06 07:43:05;;;;;;;8.70;5.15;;;;;;;14.50;91.44;101372.50;5042712;28;20607;-70
2022/10/06 07:45:40;;;;;;;10.13;5.00;;;;;;;14.49;91.67;101378.56;5041131;28;20047;-70
2022/10/06 07:48:13;;;;;;;9.95;4.78;;;;;;;14.47;92.32;101370.72;5039612;28;20671;-70
2022/10/06 07:50:44;;;;;;;8.50;4.85;;;;;;;14.45;91.83;101368.09;5032410;28;20136;-70
2022/10/06 07:53:15;;;;;;;7.68;5.03;;;;;;;14.42;90.79;101372.31;5045605;28;20048;-71
2022/10/06 07:55:45;;;;;;;11.63;5.38;;;;;;;14.40;91.37;101369.69;5046043;28;20135;-70
2022/10/06 07:58:15;;;;;;;11.02;5.20;;;;;;;14.39;91.24;101362.72;5045359;28;20841;-70
2022/10/06 08:00:44;;;;;;;10.52;5.53;;;;;;;14.35;91.00;101360.88;5041951;28;20483;-70
2022/10/06 08:03:16;;;;;;;13.23;5.65;;;;;;;14.35;91.97;101363.50;5042159;28;20053;-70
2022/10/06 08:05:45;;;;;;;13.10;4.85;;;;;;;14.33;92.65;101356.50;5041817;28;20132;-70
2022/10/06 08:08:16;;;;;;;8.95;4.45;;;;;;;14.32;92.87;101359.97;5042626;28;20067;-70
2022/10/06 08:10:52;;;;;;;7.65;4.68;;;;;;;14.31;92.71;101366.00;5042848;28;20107;-70
2022/10/06 08:13:21;;;;;;;7.82;4.45;;;;;;;14.27;92.37;101367.66;5038292;28;20561;-70
2022/10/06 08:15:50;;;;;;;7.57;4.45;;;;;;;14.26;93.47;101371.09;5043389;28;20060;-70
2022/10/06 08:18:19;;;;;;;7.88;4.85;;;;;;;14.25;93.79;101365.00;5046360;28;20402;-70
2022/10/06 08:20:48;;;;;;;8.50;4.28;;;;;;;14.24;94.88;101355.41;5046675;28;20128;-70
2022/10/06 08:23:18;;;;;;;8.98;4.82;;;;;;;14.23;94.16;101371.03;5047832;28;20052;-70
2022/10/06 08:25:52;;;;;;;8.98;5.00;;;;;;;14.22;94.79;101366.63;5041065;28;20045;-69
2022/10/06 08:28:23;;;;;;;12.10;4.35;;;;;;;14.21;95.47;101357.97;5043851;28;20447;-69
2022/10/06 08:30:52;;;;;;;8.27;4.68;;;;;;;14.20;94.94;101361.41;5044417;28;20052;-69
2022/10/06 08:33:21;;;;;;;10.35;4.53;;;;;;;14.19;93.47;101358.75;5044576;28;20122;-69
2022/10/06 08:35:50;;;;;;;8.73;4.75;;;;;;;14.18;93.80;101362.22;5047776;28;20049;-69
2022/10/06 08:38:20;;;;;;;9.15;4.47;;;;;;;14.17;93.59;101360.44;5041455;28;20042;-69
2022/10/06 08:40:49;;;;;;;7.32;4.30;;;;;;;14.15;93.42;101362.13;5048357;28;20525;-70
2022/10/06 08:43:21;;;;;;;7.88;4.63;;;;;;;14.14;93.12;101360.38;5065054;28;20351;-69
2022/10/06 08:45:59;;;;;;;9.45;3.78;;;;;;;14.09;93.20;101360.28;5065990;28;20053;-68
2022/10/06 08:48:37;;;;;;;9.82;4.38;;;;;;;13.98;93.05;101362.59;5062681;28;20745;-69
2022/10/06 08:51:20;;;;;;;10.18;3.95;;;;;;;13.91;92.96;101358.09;5063106;28;20651;-69
2022/10/06 08:54:03;;;;;;;8.13;4.10;;;;;;;13.81;93.62;101356.06;5064230;28;20662;-69
2022/10/06 08:56:37;;;;;;;9.75;5.25;;;;;;;13.76;93.54;101362.88;5065789;28;20620;-69
2022/10/06 08:59:06;;;;;;;7.03;4.03;;;;;;;13.74;93.98;101359.34;5058020;28;20588;-69
2022/10/06 09:01:42;;;;;;;10.88;4.28;;;;;;;13.71;93.60;101359.28;5060229;28;20049;-69
2022/10/06 09:04:24;;;;;;;8.88;4.28;;;;;;;13.71;93.06;101362.75;5064092;28;20045;-69
2022/10/06 09:07:02;;;;;;;9.65;4.68;;;;;;;13.69;93.41;101367.03;5066802;28;20044;-69
2022/10/06 09:09:52;;;;;;;6.68;4.25;;;;;;;13.71;92.85;101351.47;5057237;28;20761;-69
2022/10/06 09:12:27;;;;;;;9.35;4.43;;;;;;;13.71;92.26;101354.09;5055637;28;20127;-69
2022/10/06 09:15:05;;;;;;;7.45;4.25;;;;;;;13.70;91.55;101357.50;5058403;28;20044;-69
2022/10/06 09:17:39;;;;;;;6.90;4.30;;;;;;;13.62;91.61;101350.38;5062695;28;20578;-69
2022/10/06 09:20:19;;;;;;;5.95;4.22;;;;;;;13.67;91.53;101357.44;5062097;28;20494;-68
2022/10/06 09:22:50;;;;;;;9.13;4.55;;;;;;;13.64;91.72;101353.03;5065036;28;20052;-69
2022/10/06 09:25:26;;;;;;;7.07;4.40;;;;;;;13.61;91.53;101359.03;5067366;28;20045;-69
2022/10/06 09:27:57;;;;;;;11.63;4.97;;;;;;;13.60;91.08;101359.00;5057644;28;20139;-69
2022/10/06 09:30:27;;;;;;;12.60;4.45;;;;;;;13.58;91.72;101366.78;5060451;28;20478;-69
2022/10/06 09:33:00;;;;;;;8.70;4.22;;;;;;;13.57;91.37;101362.41;5065831;28;20049;-69
2022/10/06 09:35:30;;;;;;;8.48;4.95;;;;;;;13.54;91.11;101362.31;5065876;28;20052;-69
2022/10/06 09:38:02;;;;;;;9.00;4.78;;;;;;;13.51;90.80;101367.41;5060550;28;20054;-69
2022/10/06 09:40:43;;;;;;;10.00;4.72;;;;;;;13.49;91.43;101366.53;5065609;28;21250;-69
2022/10/06 09:43:21;;;;;;;11.52;4.57;;;;;;;13.46;92.15;101358.63;5066666;28;20083;-69
2022/10/06 09:45:50;;;;;;;6.82;4.25;;;;;;;13.44;92.08;101360.28;5072855;28;20052;-70
2022/10/06 09:48:23;;;;;;;6.95;4.40;;;;;;;13.41;92.10;101355.03;5064078;28;20048;-69
2022/10/06 09:51:14;;;;;;;6.80;4.43;;;;;;;13.32;91.63;101344.38;5055170;28;20056;-69
2022/10/06 09:53:43;;;;;;;10.35;4.15;;;;;;;13.35;92.13;101355.75;5057658;28;20048;-69
2022/10/06 09:56:19;;;;;;;5.53;3.53;;;;;;;13.32;92.30;101354.75;5062101;28;20057;-69
2022/10/06 09:58:56;;;;;;;6.13;3.75;;;;;;;13.24;92.48;101349.34;5069872;28;20063;-69
2022/10/06 10:01:27;;;;;;;6.68;3.97;;;;;;;13.27;92.33;101358.94;5058965;28;20099;-68
2022/10/06 10:03:59;;;;;;;8.48;3.92;;;;;;;13.23;92.12;101357.94;5059261;28;20045;-70
2022/10/06 10:06:29;;;;;;;5.90;3.72;;;;;;;13.24;92.09;101356.22;5056182;28;20064;-69
2022/10/06 10:09:25;;;;;;;6.78;3.90;;;;;;;13.23;92.37;101362.28;5070846;28;20682;-69
2022/10/06 10:12:27;;;;;;;6.22;3.95;;;;;;;13.23;92.63;101357.94;5065310;28;20044;-69
2022/10/06 10:15:00;;;;;;;8.38;4.00;;;;;;;13.21;92.44;101368.28;5057480;28;20056;-69
2022/10/06 10:17:48;;;;;;;6.65;3.95;;;;;;;13.20;91.93;101360.47;5062124;28;20055;-69
2022/10/06 10:20:30;;;;;;;11.77;4.22;;;;;;;13.19;91.92;101361.28;5062290;28;20586;-70
2022/10/06 10:23:01;;;;;;;11.57;4.43;;;;;;;13.18;92.83;101355.22;5076373;28;20153;-69
2022/10/06 10:25:59;;;;;;;8.73;3.72;;;;;;;13.15;92.29;101356.88;5063967;28;20098;-69
2022/10/06 10:28:54;;;;;;;7.40;3.67;;;;;;;13.06;92.47;101356.59;5067478;28;20045;-69
2022/10/06 10:31:31;;;;;;;8.60;3.95;;;;;;;12.98;93.01;101353.75;5059624;28;20045;-69
2022/10/06 10:34:09;;;;;;;7.70;3.65;;;;;;;12.96;92.89;101352.84;5058597;28;20048;-69
2022/10/06 10:36:44;;;;;;;9.00;4.57;;;;;;;12.96;92.87;101355.44;5062464;28;20078;-69
2022/10/06 10:39:20;;;;;;;6.40;3.90;;;;;;;12.97;92.85;101360.69;5066443;28;20927;-69
2022/10/06 10:41:53;;;;;;;5.82;3.80;;;;;;;12.93;92.08;101365.75;5051561;28;20814;-69
2022/10/06 10:44:30;;;;;;;7.88;4.57;;;;;;;12.83;93.73;101354.22;5043581;28;20045;-69
2022/10/06 10:47:12;;;;;;;19.80;5.03;;;;;;;12.66;94.20;101335.50;5041470;28;20088;-69
2022/10/06 10:49:43;;;;;;;16.23;5.53;;;;;;;12.70;94.28;101352.06;5038573;28;20106;-69
2022/10/06 10:52:16;;;;;;;13.13;5.65;;;;;;;12.71;94.74;101359.91;5040970;28;20502;-69
2022/10/06 10:54:49;;;;;;;11.82;4.68;;;;;;;12.70;94.63;101358.13;5045362;28;20056;-69
2022/10/06 10:57:22;;;;;;;21.88;6.20;;;;;;;12.65;96.26;101354.53;5039698;28;20051;-69
2022/10/06 10:59:58;;;;;;;;;;;;;;;12.64;96.42;101354.47;5047710;28;20045;-69
2022/10/06 11:02:28;;;;;;;14.88;5.20;;;;;;;12.63;97.09;101351.00;5038553;28;20014;-69
2022/10/06 11:05:03;;;;;;;9.82;5.22;;;;;;;12.61;97.01;101347.47;5044632;28;20084;-70
2022/10/06 11:07:38;;;;;;;9.77;4.78;;;;;;;12.59;97.84;101349.13;5043623;28;20051;-70
2022/10/06 11:10:13;;;;;;;12.50;5.32;;;;;;;12.50;98.83;101338.47;5037742;28;20052;-70
2022/10/06 11:12:58;;;;;;;10.80;5.15;;;;;;;12.55;99.13;101347.28;5043392;28;20698;-70
2022/10/06 11:15:52;;;;;;;14.90;5.78;;;;;;;12.54;99.68;101356.78;5038530;28;20610;-70
2022/10/06 11:18:30;;;;;;;12.20;5.38;;;;;;;12.56;100.00;101349.06;5037752;28;20085;-70
2022/10/06 11:21:06;;;;;;;10.82;5.72;;;;;;;12.57;99.58;101341.31;5040011;28;20063;-70
2022/10/06 11:23:53;;;;;;;10.10;5.30;;;;;;;12.51;98.69;101340.25;5038399;28;20057;-70
2022/10/06 11:26:49;;;;;;;14.25;5.80;;;;;;;12.59;98.87;101349.13;5035526;28;20679;-70
2022/10/06 11:29:28;;;;;;;7.75;4.80;;;;;;;12.60;99.25;101345.72;5032236;28;20414;-70
2022/10/06 11:32:10;;;;;;;9.05;5.38;;;;;;;12.61;98.45;101352.66;5046522;28;20055;-70
2022/10/06 11:34:40;;;;;;;9.40;5.40;;;;;;;12.60;98.26;101348.31;5045485;28;20059;-70
2022/10/06 11:37:19;;;;;;;12.73;5.10;;;;;;;12.58;98.31;101339.59;5049424;28;20037;-70
2022/10/06 11:39:54;;;;;;;9.75;4.75;;;;;;;12.64;98.79;101347.56;5040500;28;20056;-70
2022/10/06 11:42:31;;;;;;;9.57;5.70;;;;;;;12.63;98.52;101348.41;5057948;27;20053;-69
2022/10/06 11:45:04;;;;;;;11.23;5.13;;;;;;;12.62;98.83;101346.66;5063880;28;20051;-70
2022/10/06 11:47:44;;;;;;;11.38;5.50;;;;;;;12.62;98.52;101345.75;5071014;28;20049;-70
2022/10/06 11:50:41;;;;;;;10.30;5.55;;;;;;;12.63;98.59;101344.94;5056564;28;20044;-70
2022/10/06 11:53:27;;;;;;;10.48;5.53;;;;;;;12.59;98.81;101346.53;5027620;28;20056;-70